sensor_id;sensor_type;location;lat;lon;timestamp;pressure;altitude;pressure_sealevel;temperature;humidity
10518;BME280;5307;42.548;22.968;2023-01-31T00:00:54;93371.78;;;-1.39;100.00
10518;BME280;5307;42.548;22.968;2023-01-31T00:03:21;93384.38;;;-1.29;100.00
10518;BME280;5307;42.548;22.968;2023-01-31T00:05:48;93375.19;;;-1.42;100.00
10518;BME280;5307;42.548;22.968;2023-01-31T00:08:15;93388.22;;;-1.37;99.86
10518;BME280;5307;42.548;22.968;2023-01-31T00:10:42;93381.72;;;-1.36;99.47
10518;BME280;5307;42.548;22.968;2023-01-31T00:13:10;93378.66;;;-1.34;99.33
10518;BME280;5307;42.548;22.968;2023-01-31T00:15:37;93382.47;;;-1.35;99.16
10518;BME280;5307;42.548;22.968;2023-01-31T00:18:04;93380.94;;;-1.22;99.13
10518;BME280;5307;42.548;22.968;2023-01-31T00:20:31;93390.88;;;-1.12;99.00
10518;BME280;5307;42.548;22.968;2023-01-31T00:22:58;93387.06;;;-1.22;98.74
10518;BME280;5307;42.548;22.968;2023-01-31T00:25:25;93383.25;;;-1.24;98.51
10518;BME280;5307;42.548;22.968;2023-01-31T00:27:51;93377.13;;;-1.25;98.24
10518;BME280;5307;42.548;22.968;2023-01-31T00:30:20;93378.63;;;-1.27;98.52
10518;BME280;5307;42.548;22.968;2023-01-31T00:32:47;93379.41;;;-1.27;98.64
10518;BME280;5307;42.548;22.968;2023-01-31T00:35:13;93375.59;;;-1.47;99.21
10518;BME280;5307;42.548;22.968;2023-01-31T00:37:41;93373.28;;;-1.31;100.00
10518;BME280;5307;42.548;22.968;2023-01-31T00:40:09;93380.53;;;-1.13;100.00
10518;BME280;5307;42.548;22.968;2023-01-31T00:42:36;93373.66;;;-1.14;100.00
10518;BME280;5307;42.548;22.968;2023-01-31T00:45:05;93380.16;;;-1.15;100.00
10518;BME280;5307;42.548;22.968;2023-01-31T00:47:34;93381.69;;;-1.22;100.00
10518;BME280;5307;42.548;22.968;2023-01-31T00:50:00;93379.03;;;-1.25;100.00
10518;BME280;5307;42.548;22.968;2023-01-31T00:52:27;93376.34;;;-1.11;99.42
10518;BME280;5307;42.548;22.968;2023-01-31T00:54:54;93373.66;;;-0.97;99.07
10518;BME280;5307;42.548;22.968;2023-01-31T00:57:21;93373.66;;;-1.11;98.58
10518;BME280;5307;42.548;22.968;2023-01-31T00:59:48;93375.19;;;-1.13;98.04
10518;BME280;5307;42.548;22.968;2023-01-31T01:02:14;93374.81;;;-1.15;98.32
10518;BME280;5307;42.548;22.968;2023-01-31T01:04:42;93364.88;;;-1.26;99.48
10518;BME280;5307;42.548;22.968;2023-01-31T01:07:09;93379.41;;;-1.20;99.34
10518;BME280;5307;42.548;22.968;2023-01-31T01:09:38;93377.09;;;-0.96;100.00
10518;BME280;5307;42.548;22.968;2023-01-31T01:12:05;93377.84;;;-0.99;100.00
10518;BME280;5307;42.548;22.968;2023-01-31T01:14:32;93375.97;;;-1.09;100.00
10518;BME280;5307;42.548;22.968;2023-01-31T01:16:59;93400.78;;;-0.73;99.91
10518;BME280;5307;42.548;22.968;2023-01-31T01:19:26;93406.94;;;-0.83;99.86
10518;BME280;5307;42.548;22.968;2023-01-31T01:21:54;93402.38;;;-1.08;99.62
10518;BME280;5307;42.548;22.968;2023-01-31T01:24:23;93408.50;;;-1.36;100.00
10518;BME280;5307;42.548;22.968;2023-01-31T01:26:51;93418.81;;;-1.13;100.00
10518;BME280;5307;42.548;22.968;2023-01-31T01:29:18;93410.38;;;-1.29;100.00
10518;BME280;5307;42.548;22.968;2023-01-31T01:31:45;93408.09;;;-1.24;100.00
10518;BME280;5307;42.548;22.968;2023-01-31T01:34:13;93406.19;;;-1.20;100.00
10518;BME280;5307;42.548;22.968;2023-01-31T01:36:41;93385.53;;;-1.12;100.00
10518;BME280;5307;42.548;22.968;2023-01-31T01:39:10;93396.59;;;-0.92;100.00
10518;BME280;5307;42.548;22.968;2023-01-31T01:41:38;93385.50;;;-0.98;100.00
10518;BME280;5307;42.548;22.968;2023-01-31T01:44:43;93382.44;;;-1.00;98.63
10518;BME280;5307;42.548;22.968;2023-01-31T01:47:14;93393.16;;;-0.96;98.99
10518;BME280;5307;42.548;22.968;2023-01-31T01:49:43;93387.81;;;-1.03;98.25
10518;BME280;5307;42.548;22.968;2023-01-31T01:52:27;93378.22;;;-1.01;98.34
10518;BME280;5307;42.548;22.968;2023-01-31T01:54:58;93377.84;;;-0.92;98.03
10518;BME280;5307;42.548;22.968;2023-01-31T01:57:30;93385.47;;;-0.76;96.92
10518;BME280;5307;42.548;22.968;2023-01-31T02:00:05;93397.38;;;-1.09;97.83
10518;BME280;5307;42.548;22.968;2023-01-31T02:02:35;93382.84;;;-1.12;98.67
10518;BME280;5307;42.548;22.968;2023-01-31T02:05:02;93379.00;;;-1.18;97.29
10518;BME280;5307;42.548;22.968;2023-01-31T02:07:35;93389.72;;;-1.00;96.37
10518;BME280;5307;42.548;22.968;2023-01-31T02:10:07;93380.91;;;-0.90;95.31
10518;BME280;5307;42.548;22.968;2023-01-31T02:12:37;93380.16;;;-1.05;94.81
10518;BME280;5307;42.548;22.968;2023-01-31T02:15:05;93387.44;;;-0.98;93.66
10518;BME280;5307;42.548;22.968;2023-01-31T02:17:33;93380.13;;;-1.01;94.42
10518;BME280;5307;42.548;22.968;2023-01-31T02:20:17;93400.44;;;-1.04;94.95
10518;BME280;5307;42.548;22.968;2023-01-31T02:23:07;93389.31;;;-0.92;95.01
10518;BME280;5307;42.548;22.968;2023-01-31T02:32:16;93391.22;;;-0.85;93.96
10518;BME280;5307;42.548;22.968;2023-01-31T02:34:51;93387.06;;;-1.07;94.08
10518;BME280;5307;42.548;22.968;2023-01-31T02:37:35;93395.47;;;-0.98;93.82
10518;BME280;5307;42.548;22.968;2023-01-31T02:40:10;93396.97;;;-0.86;93.90
10518;BME280;5307;42.548;22.968;2023-01-31T02:42:47;93402.38;;;-1.11;94.24
10518;BME280;5307;42.548;22.968;2023-01-31T02:45:24;93410.00;;;-1.28;95.15
10518;BME280;5307;42.548;22.968;2023-01-31T02:48:05;93401.56;;;-1.01;97.02
10518;BME280;5307;42.548;22.968;2023-01-31T02:50:37;93401.59;;;-1.15;97.89
10518;BME280;5307;42.548;22.968;2023-01-31T02:53:11;93416.88;;;-1.48;99.74
10518;BME280;5307;42.548;22.968;2023-01-31T02:55:43;93426.47;;;-1.26;100.00
10518;BME280;5307;42.548;22.968;2023-01-31T02:58:31;93435.28;;;-1.22;100.00
10518;BME280;5307;42.548;22.968;2023-01-31T03:01:01;93441.78;;;-1.12;100.00
10518;BME280;5307;42.548;22.968;2023-01-31T03:03:33;93440.63;;;-1.14;100.00
10518;BME280;5307;42.548;22.968;2023-01-31T03:06:09;93448.28;;;-1.20;100.00
10518;BME280;5307;42.548;22.968;2023-01-31T03:08:41;93446.75;;;-1.17;100.00
10518;BME280;5307;42.548;22.968;2023-01-31T03:11:09;93449.03;;;-1.20;100.00
10518;BME280;5307;42.548;22.968;2023-01-31T03:13:46;93456.72;;;-1.07;100.00
10518;BME280;5307;42.548;22.968;2023-01-31T03:16:24;93440.63;;;-1.07;100.00
10518;BME280;5307;42.548;22.968;2023-01-31T03:19:15;93459.75;;;-1.02;100.00
10518;BME280;5307;42.548;22.968;2023-01-31T03:21:48;93460.53;;;-1.01;100.00
10518;BME280;5307;42.548;22.968;2023-01-31T03:24:18;93459.00;;;-0.92;100.00
10518;BME280;5307;42.548;22.968;2023-01-31T03:26:51;93449.81;;;-1.05;100.00
10518;BME280;5307;42.548;22.968;2023-01-31T03:29:18;93454.41;;;-0.98;100.00
10518;BME280;5307;42.548;22.968;2023-01-31T03:31:49;93465.91;;;-0.98;100.00
10518;BME280;5307;42.548;22.968;2023-01-31T03:34:20;93468.19;;;-0.93;100.00
10518;BME280;5307;42.548;22.968;2023-01-31T03:36:53;93460.13;;;-0.85;100.00
10518;BME280;5307;42.548;22.968;2023-01-31T03:39:30;93451.34;;;-1.00;100.00
10518;BME280;5307;42.548;22.968;2023-01-31T03:42:04;93465.88;;;-0.87;100.00
10518;BME280;5307;42.548;22.968;2023-01-31T03:44:41;93490.78;;;-0.86;100.00
10518;BME280;5307;42.548;22.968;2023-01-31T03:47:14;93496.16;;;-0.94;100.00
10518;BME280;5307;42.548;22.968;2023-01-31T03:49:44;93499.56;;;-1.00;100.00
10518;BME280;5307;42.548;22.968;2023-01-31T03:52:16;93505.31;;;-1.09;100.00
10518;BME280;5307;42.548;22.968;2023-01-31T03:54:52;93486.94;;;-1.17;100.00
10518;BME280;5307;42.548;22.968;2023-01-31T03:57:22;93483.13;;;-1.06;100.00
10518;BME280;5307;42.548;22.968;2023-01-31T03:59:51;93480.06;;;-1.04;100.00
10518;BME280;5307;42.548;22.968;2023-01-31T04:02:23;93475.06;;;-1.16;100.00
10518;BME280;5307;42.548;22.968;2023-01-31T04:04:56;93472.78;;;-1.07;100.00
10518;BME280;5307;42.548;22.968;2023-01-31T04:07:26;93480.81;;;-1.04;100.00
10518;BME280;5307;42.548;22.968;2023-01-31T04:09:53;93492.31;;;-0.89;100.00
10518;BME280;5307;42.548;22.968;2023-01-31T04:12:20;93480.84;;;-0.97;100.00
10518;BME280;5307;42.548;22.968;2023-01-31T04:14:47;93495.75;;;-0.81;100.00
10518;BME280;5307;42.548;22.968;2023-01-31T04:17:14;93483.88;;;-0.80;100.00
10518;BME280;5307;42.548;22.968;2023-01-31T04:19:41;93490.38;;;-0.49;100.00
10518;BME280;5307;42.548;22.968;2023-01-31T04:22:09;93485.78;;;-0.42;99.42
10518;BME280;5307;42.548;22.968;2023-01-31T04:24:36;93477.34;;;-0.40;98.15
10518;BME280;5307;42.548;22.968;2023-01-31T04:27:02;93494.13;;;-0.18;97.06
10518;BME280;5307;42.548;22.968;2023-01-31T04:29:29;93489.53;;;-0.18;96.20
10518;BME280;5307;42.548;22.968;2023-01-31T04:31:56;93491.09;;;-0.24;95.67
10518;BME280;5307;42.548;22.968;2023-01-31T04:34:23;93492.19;;;-0.11;95.60
10518;BME280;5307;42.548;22.968;2023-01-31T04:36:50;93496.00;;;-0.05;95.24
10518;BME280;5307;42.548;22.968;2023-01-31T04:39:18;93507.16;;;-0.17;94.96
10518;BME280;5307;42.548;22.968;2023-01-31T04:41:45;93504.47;;;-0.10;94.86
10518;BME280;5307;42.548;22.968;2023-01-31T04:44:11;93513.25;;;-0.06;95.08
10518;BME280;5307;42.548;22.968;2023-01-31T04:46:38;93527.47;;;-0.09;94.42
10518;BME280;5307;42.548;22.968;2023-01-31T04:49:05;93521.31;;;-0.06;94.29
10518;BME280;5307;42.548;22.968;2023-01-31T04:51:32;93525.88;;;0.12;94.71
10518;BME280;5307;42.548;22.968;2023-01-31T04:53:58;93524.38;;;0.00;94.93
10518;BME280;5307;42.548;22.968;2023-01-31T04:56:27;93521.66;;;0.07;94.58
10518;BME280;5307;42.548;22.968;2023-01-31T04:58:54;93524.00;;;-0.06;94.43
10518;BME280;5307;42.548;22.968;2023-01-31T05:01:21;93524.75;;;-0.05;94.95
10518;BME280;5307;42.548;22.968;2023-01-31T05:03:47;93519.41;;;-0.09;94.38
10518;BME280;5307;42.548;22.968;2023-01-31T05:06:14;93518.63;;;0.02;94.63
10518;BME280;5307;42.548;22.968;2023-01-31T05:08:41;93519.00;;;0.04;94.55
10518;BME280;5307;42.548;22.968;2023-01-31T05:11:08;93518.22;;;0.07;94.53
10518;BME280;5307;42.548;22.968;2023-01-31T05:13:36;93510.56;;;-0.02;94.47
10518;BME280;5307;42.548;22.968;2023-01-31T05:16:05;93518.97;;;0.11;94.31
10518;BME280;5307;42.548;22.968;2023-01-31T05:18:33;93506.38;;;0.01;93.78
10518;BME280;5307;42.548;22.968;2023-01-31T05:21:01;93510.94;;;0.04;93.29
10518;BME280;5307;42.548;22.968;2023-01-31T05:23:28;93511.34;;;0.02;92.61
10518;BME280;5307;42.548;22.968;2023-01-31T05:25:55;93515.50;;;0.17;92.63
10518;BME280;5307;42.548;22.968;2023-01-31T05:28:23;93524.03;;;-0.13;92.67
10518;BME280;5307;42.548;22.968;2023-01-31T05:30:52;93517.84;;;0.05;93.34
10518;BME280;5307;42.548;22.968;2023-01-31T05:33:19;93517.47;;;-0.05;93.48
10518;BME280;5307;42.548;22.968;2023-01-31T05:35:46;93524.72;;;0.09;93.88
10518;BME280;5307;42.548;22.968;2023-01-31T05:38:13;93535.09;;;-0.04;93.15
10518;BME280;5307;42.548;22.968;2023-01-31T05:40:40;93540.81;;;0.16;92.79
10518;BME280;5307;42.548;22.968;2023-01-31T05:43:07;93533.50;;;0.24;92.04
10518;BME280;5307;42.548;22.968;2023-01-31T05:45:33;93535.44;;;0.13;91.95
10518;BME280;5307;42.548;22.968;2023-01-31T05:48:02;93541.19;;;0.22;91.34
10518;BME280;5307;42.548;22.968;2023-01-31T05:50:29;93545.03;;;0.21;90.79
10518;BME280;5307;42.548;22.968;2023-01-31T05:52:57;93543.47;;;0.23;90.36
10518;BME280;5307;42.548;22.968;2023-01-31T05:55:24;93539.63;;;0.32;90.03
10518;BME280;5307;42.548;22.968;2023-01-31T05:57:52;93537.31;;;0.30;89.86
10518;BME280;5307;42.548;22.968;2023-01-31T06:00:20;93528.88;;;0.32;90.11
10518;BME280;5307;42.548;22.968;2023-01-31T06:02:47;93538.47;;;0.25;89.80
10518;BME280;5307;42.548;22.968;2023-01-31T06:05:16;93534.25;;;0.24;89.63
10518;BME280;5307;42.548;22.968;2023-01-31T06:07:42;93523.53;;;0.21;89.30
10518;BME280;5307;42.548;22.968;2023-01-31T06:10:10;93536.56;;;0.22;89.89
10518;BME280;5307;42.548;22.968;2023-01-31T06:12:38;93546.53;;;0.33;89.54
10518;BME280;5307;42.548;22.968;2023-01-31T06:15:05;93552.28;;;0.24;89.40
10518;BME280;5307;42.548;22.968;2023-01-31T06:17:33;93554.97;;;0.31;89.91
10518;BME280;5307;42.548;22.968;2023-01-31T06:20:00;93544.00;;;0.77;91.91
10518;BME280;5307;42.548;22.968;2023-01-31T06:22:28;93536.50;;;0.40;90.37
10518;BME280;5307;42.548;22.968;2023-01-31T06:24:55;93543.75;;;0.50;90.50
10518;BME280;5307;42.548;22.968;2023-01-31T06:27:22;93554.50;;;0.50;90.36
10518;BME280;5307;42.548;22.968;2023-01-31T06:29:48;93557.94;;;0.51;89.81
10518;BME280;5307;42.548;22.968;2023-01-31T06:32:15;93554.09;;;0.55;89.36
10518;BME280;5307;42.548;22.968;2023-01-31T06:34:42;93552.97;;;0.56;89.23
10518;BME280;5307;42.548;22.968;2023-01-31T06:37:09;93545.72;;;0.39;88.57
10518;BME280;5307;42.548;22.968;2023-01-31T06:39:37;93550.59;;;0.66;89.19
10518;BME280;5307;42.548;22.968;2023-01-31T06:42:04;93555.59;;;0.64;89.70
10518;BME280;5307;42.548;22.968;2023-01-31T06:44:31;93554.47;;;0.54;88.67
10518;BME280;5307;42.548;22.968;2023-01-31T06:46:58;93562.50;;;0.65;88.16
10518;BME280;5307;42.548;22.968;2023-01-31T06:49:25;93555.69;;;0.46;88.06
10518;BME280;5307;42.548;22.968;2023-01-31T06:51:51;93551.78;;;0.54;88.27
10518;BME280;5307;42.548;22.968;2023-01-31T07:00:51;93558.00;;;0.37;88.19
10518;BME280;5307;42.548;22.968;2023-01-31T07:03:18;93563.72;;;0.42;89.04
10518;BME280;5307;42.548;22.968;2023-01-31T07:05:45;93558.38;;;0.46;88.92
10518;BME280;5307;42.548;22.968;2023-01-31T07:11:12;93554.16;;;0.41;89.51
10518;BME280;5307;42.548;22.968;2023-01-31T07:13:39;93558.69;;;0.58;89.53
10518;BME280;5307;42.548;22.968;2023-01-31T07:16:08;93560.63;;;0.54;89.55
10518;BME280;5307;42.548;22.968;2023-01-31T07:18:34;93551.41;;;0.59;89.37
10518;BME280;5307;42.548;22.968;2023-01-31T07:21:01;93554.53;;;0.43;90.12
10518;BME280;5307;42.548;22.968;2023-01-31T07:23:28;93554.84;;;0.56;90.67
10518;BME280;5307;42.548;22.968;2023-01-31T07:25:55;93559.78;;;0.72;90.27
10518;BME280;5307;42.548;22.968;2023-01-31T07:28:21;93554.06;;;0.63;89.71
10518;BME280;5307;42.548;22.968;2023-01-31T07:30:48;93559.84;;;0.61;90.21
10518;BME280;5307;42.548;22.968;2023-01-31T07:33:17;93562.81;;;0.77;90.17
10518;BME280;5307;42.548;22.968;2023-01-31T07:35:44;93573.22;;;0.72;89.99
10518;BME280;5307;42.548;22.968;2023-01-31T07:38:11;93567.00;;;0.82;90.19
10518;BME280;5307;42.548;22.968;2023-01-31T07:40:38;93566.69;;;0.69;90.18
10518;BME280;5307;42.548;22.968;2023-01-31T07:43:05;93571.22;;;0.83;90.23
10518;BME280;5307;42.548;22.968;2023-01-31T07:45:32;93582.44;;;0.71;90.06
10518;BME280;5307;42.548;22.968;2023-01-31T07:47:58;93583.56;;;0.70;89.90
10518;BME280;5307;42.548;22.968;2023-01-31T07:50:27;93577.41;;;0.76;90.67
10518;BME280;5307;42.548;22.968;2023-01-31T07:52:56;93580.53;;;0.64;90.54
10518;BME280;5307;42.548;22.968;2023-01-31T07:55:23;93577.09;;;0.64;90.97
10518;BME280;5307;42.548;22.968;2023-01-31T07:57:50;93585.97;;;0.57;91.29
10518;BME280;5307;42.548;22.968;2023-01-31T08:00:17;93586.28;;;0.73;91.70
10518;BME280;5307;42.548;22.968;2023-01-31T08:03:01;93590.09;;;0.76;91.75
10518;BME280;5307;42.548;22.968;2023-01-31T08:05:47;93596.19;;;0.83;92.12
10518;BME280;5307;42.548;22.968;2023-01-31T08:08:14;93594.28;;;0.87;91.64
10518;BME280;5307;42.548;22.968;2023-01-31T08:10:43;93595.03;;;0.88;92.42
10518;BME280;5307;42.548;22.968;2023-01-31T08:13:11;93600.38;;;0.92;93.00
10518;BME280;5307;42.548;22.968;2023-01-31T08:15:38;93599.19;;;0.96;92.63
10518;BME280;5307;42.548;22.968;2023-01-31T08:18:05;93599.59;;;0.95;93.37
10518;BME280;5307;42.548;22.968;2023-01-31T08:20:31;93590.75;;;1.01;92.46
10518;BME280;5307;42.548;22.968;2023-01-31T08:23:00;93588.03;;;1.05;92.02
10518;BME280;5307;42.548;22.968;2023-01-31T08:25:27;93595.66;;;1.17;92.79
10518;BME280;5307;42.548;22.968;2023-01-31T08:27:56;93600.19;;;1.24;92.04
10518;BME280;5307;42.548;22.968;2023-01-31T08:30:23;93601.25;;;1.44;89.72
10518;BME280;5307;42.548;22.968;2023-01-31T08:32:51;93587.19;;;1.18;88.46
10518;BME280;5307;42.548;22.968;2023-01-31T08:35:17;93579.81;;;1.30;87.81
10518;BME280;5307;42.548;22.968;2023-01-31T08:37:44;93597.38;;;1.45;87.90
10518;BME280;5307;42.548;22.968;2023-01-31T08:40:13;93613.94;;;1.40;87.51
10518;BME280;5307;42.548;22.968;2023-01-31T08:42:39;93612.41;;;1.42;87.37
10518;BME280;5307;42.548;22.968;2023-01-31T08:45:07;93612.41;;;1.39;87.96
10518;BME280;5307;42.548;22.968;2023-01-31T08:47:34;93614.28;;;1.45;87.39
10518;BME280;5307;42.548;22.968;2023-01-31T08:50:01;93613.13;;;1.46;87.03
10518;BME280;5307;42.548;22.968;2023-01-31T08:52:27;93616.94;;;1.49;87.13
10518;BME280;5307;42.548;22.968;2023-01-31T08:55:00;93606.97;;;1.46;86.36
10518;BME280;5307;42.548;22.968;2023-01-31T08:57:28;93604.75;;;1.34;85.95
10518;BME280;5307;42.548;22.968;2023-01-31T08:59:54;93608.84;;;1.56;86.56
10518;BME280;5307;42.548;22.968;2023-01-31T09:02:24;93612.25;;;1.60;86.61
10518;BME280;5307;42.548;22.968;2023-01-31T09:04:50;93605.00;;;1.57;85.33
10518;BME280;5307;42.548;22.968;2023-01-31T09:07:17;93604.63;;;1.55;86.04
10518;BME280;5307;42.548;22.968;2023-01-31T09:09:46;93607.03;;;1.42;85.61
10518;BME280;5307;42.548;22.968;2023-01-31T09:12:13;93594.59;;;1.59;85.70
10518;BME280;5307;42.548;22.968;2023-01-31T09:14:42;93590.94;;;1.84;86.17
10518;BME280;5307;42.548;22.968;2023-01-31T09:17:08;93590.91;;;1.87;85.05
10518;BME280;5307;42.548;22.968;2023-01-31T09:19:35;93579.97;;;2.05;83.23
10518;BME280;5307;42.548;22.968;2023-01-31T09:22:02;93588.97;;;1.88;82.60
10518;BME280;5307;42.548;22.968;2023-01-31T09:24:29;93596.81;;;1.71;82.22
10518;BME280;5307;42.548;22.968;2023-01-31T09:26:59;93574.66;;;1.49;82.98
10518;BME280;5307;42.548;22.968;2023-01-31T09:29:25;93594.53;;;1.66;83.67
10518;BME280;5307;42.548;22.968;2023-01-31T09:31:55;93583.63;;;1.81;83.78
10518;BME280;5307;42.548;22.968;2023-01-31T09:34:22;93581.69;;;1.85;83.89
10518;BME280;5307;42.548;22.968;2023-01-31T09:36:49;93577.28;;;1.60;83.32
10518;BME280;5307;42.548;22.968;2023-01-31T09:39:17;93589.59;;;1.58;83.16
10518;BME280;5307;42.548;22.968;2023-01-31T09:41:47;93584.50;;;1.70;83.36
10518;BME280;5307;42.548;22.968;2023-01-31T09:44:19;93575.34;;;1.61;82.87
10518;BME280;5307;42.548;22.968;2023-01-31T09:46:51;93568.66;;;1.83;83.06
10518;BME280;5307;42.548;22.968;2023-01-31T09:49:22;93560.44;;;1.94;82.82
10518;BME280;5307;42.548;22.968;2023-01-31T09:51:55;93568.88;;;1.99;82.42
10518;BME280;5307;42.548;22.968;2023-01-31T09:54:28;93558.63;;;2.21;82.75
10518;BME280;5307;42.548;22.968;2023-01-31T09:57:02;93560.31;;;2.08;82.13
10518;BME280;5307;42.548;22.968;2023-01-31T09:59:41;93557.56;;;2.15;82.28
10518;BME280;5307;42.548;22.968;2023-01-31T10:02:41;93547.97;;;2.11;81.99
10518;BME280;5307;42.548;22.968;2023-01-31T10:05:20;93535.84;;;1.92;82.52
10518;BME280;5307;42.548;22.968;2023-01-31T10:07:59;93538.53;;;1.92;82.59
10518;BME280;5307;42.548;22.968;2023-01-31T10:10:34;93538.69;;;1.77;83.14
10518;BME280;5307;42.548;22.968;2023-01-31T10:13:05;93546.84;;;1.70;82.58
10518;BME280;5307;42.548;22.968;2023-01-31T10:15:40;93548.50;;;1.54;82.74
10518;BME280;5307;42.548;22.968;2023-01-31T10:18:11;93548.41;;;1.64;83.78
10518;BME280;5307;42.548;22.968;2023-01-31T10:20:45;93551.69;;;1.41;84.18
10518;BME280;5307;42.548;22.968;2023-01-31T10:23:16;93554.75;;;1.43;85.10
10518;BME280;5307;42.548;22.968;2023-01-31T10:25:50;93559.75;;;1.38;85.99
10518;BME280;5307;42.548;22.968;2023-01-31T10:28:19;93557.41;;;1.47;85.85
10518;BME280;5307;42.548;22.968;2023-01-31T10:30:52;93548.72;;;1.22;86.99
10518;BME280;5307;42.548;22.968;2023-01-31T10:33:27;93533.22;;;1.40;87.72
10518;BME280;5307;42.548;22.968;2023-01-31T10:36:01;93521.94;;;1.59;88.65
10518;BME280;5307;42.548;22.968;2023-01-31T10:38:31;93525.34;;;1.63;88.32
10518;BME280;5307;42.548;22.968;2023-01-31T10:41:11;93523.41;;;2.05;87.55
10518;BME280;5307;42.548;22.968;2023-01-31T10:43:44;93527.59;;;2.09;87.03
10518;BME280;5307;42.548;22.968;2023-01-31T10:46:14;93521.69;;;2.25;85.50
10518;BME280;5307;42.548;22.968;2023-01-31T10:48:43;93522.22;;;2.44;85.60
10518;BME280;5307;42.548;22.968;2023-01-31T10:51:22;93513.09;;;2.34;83.71
10518;BME280;5307;42.548;22.968;2023-01-31T10:54:07;93512.66;;;2.05;84.79
10518;BME280;5307;42.548;22.968;2023-01-31T10:56:41;93501.16;;;2.01;84.21
10518;BME280;5307;42.548;22.968;2023-01-31T10:59:13;93509.44;;;1.79;84.88
10518;BME280;5307;42.548;22.968;2023-01-31T11:01:42;93505.00;;;2.00;85.58
10518;BME280;5307;42.548;22.968;2023-01-31T11:04:22;93509.91;;;2.08;84.82
10518;BME280;5307;42.548;22.968;2023-01-31T11:06:51;93511.41;;;1.75;83.43
10518;BME280;5307;42.548;22.968;2023-01-31T11:09:18;93506.94;;;1.58;84.62
10518;BME280;5307;42.548;22.968;2023-01-31T11:11:56;93504.53;;;1.67;85.25
10518;BME280;5307;42.548;22.968;2023-01-31T11:14:23;93506.59;;;1.56;85.50
10518;BME280;5307;42.548;22.968;2023-01-31T11:16:56;93512.16;;;1.76;85.51
10518;BME280;5307;42.548;22.968;2023-01-31T11:19:29;93517.28;;;1.63;85.47
10518;BME280;5307;42.548;22.968;2023-01-31T11:22:01;93502.28;;;1.62;86.11
10518;BME280;5307;42.548;22.968;2023-01-31T11:24:29;93504.41;;;1.85;86.21
10518;BME280;5307;42.548;22.968;2023-01-31T11:26:59;93510.47;;;1.93;86.14
10518;BME280;5307;42.548;22.968;2023-01-31T11:29:30;93525.34;;;1.63;85.54
10518;BME280;5307;42.548;22.968;2023-01-31T11:31:59;93525.31;;;1.67;86.69
10518;BME280;5307;42.548;22.968;2023-01-31T11:34:28;93514.84;;;1.76;85.75
10518;BME280;5307;42.548;22.968;2023-01-31T11:37:05;93527.72;;;1.58;86.16
10518;BME280;5307;42.548;22.968;2023-01-31T11:39:33;93515.38;;;1.60;86.64
10518;BME280;5307;42.548;22.968;2023-01-31T11:42:13;93512.94;;;1.76;87.26
10518;BME280;5307;42.548;22.968;2023-01-31T11:44:57;93516.66;;;1.90;86.38
10518;BME280;5307;42.548;22.968;2023-01-31T11:47:38;93509.47;;;1.76;87.80
10518;BME280;5307;42.548;22.968;2023-01-31T11:50:18;93506.50;;;2.04;87.09
10518;BME280;5307;42.548;22.968;2023-01-31T11:52:53;93506.50;;;2.04;87.46
10518;BME280;5307;42.548;22.968;2023-01-31T11:55:21;93507.00;;;1.92;86.75
10518;BME280;5307;42.548;22.968;2023-01-31T11:57:53;93508.78;;;2.06;86.32
10518;BME280;5307;42.548;22.968;2023-01-31T12:00:23;93508.81;;;2.02;86.21
10518;BME280;5307;42.548;22.968;2023-01-31T12:02:57;93512.25;;;2.06;85.50
10518;BME280;5307;42.548;22.968;2023-01-31T12:05:33;93495.25;;;1.75;85.16
10518;BME280;5307;42.548;22.968;2023-01-31T12:08:03;93516.34;;;1.81;85.74
10518;BME280;5307;42.548;22.968;2023-01-31T12:10:33;93511.44;;;1.72;86.03
10518;BME280;5307;42.548;22.968;2023-01-31T12:13:12;93506.47;;;1.70;85.31
10518;BME280;5307;42.548;22.968;2023-01-31T12:15:45;93516.06;;;1.68;84.93
10518;BME280;5307;42.548;22.968;2023-01-31T12:18:20;93508.16;;;1.91;84.53
10518;BME280;5307;42.548;22.968;2023-01-31T12:20:57;93508.94;;;1.92;84.66
10518;BME280;5307;42.548;22.968;2023-01-31T12:23:36;93508.97;;;1.88;85.06
10518;BME280;5307;42.548;22.968;2023-01-31T12:26:10;93513.50;;;1.95;85.56
10518;BME280;5307;42.548;22.968;2023-01-31T12:28:53;93513.63;;;1.84;85.16
10518;BME280;5307;42.548;22.968;2023-01-31T12:31:42;93511.44;;;1.68;85.17
10518;BME280;5307;42.548;22.968;2023-01-31T12:34:29;93509.63;;;1.99;85.35
10518;BME280;5307;42.548;22.968;2023-01-31T12:37:25;93509.22;;;2.01;84.79
10518;BME280;5307;42.548;22.968;2023-01-31T12:40:13;93512.78;;;1.91;84.67
10518;BME280;5307;42.548;22.968;2023-01-31T12:42:52;93512.72;;;1.98;82.79
10518;BME280;5307;42.548;22.968;2023-01-31T12:45:31;93508.41;;;2.04;82.35
10518;BME280;5307;42.548;22.968;2023-01-31T12:51:21;93494.81;;;2.18;82.23
10518;BME280;5307;42.548;22.968;2023-01-31T12:53:57;93474.53;;;2.41;81.69
10518;BME280;5307;42.548;22.968;2023-01-31T12:56:44;93503.06;;;2.34;81.42
10518;BME280;5307;42.548;22.968;2023-01-31T12:59:22;93496.28;;;2.57;79.63
10518;BME280;5307;42.548;22.968;2023-01-31T13:02:11;93492.72;;;1.99;79.35
10518;BME280;5307;42.548;22.968;2023-01-31T13:04:44;93497.13;;;2.16;79.32
10518;BME280;5307;42.548;22.968;2023-01-31T13:13:10;93490.09;;;1.92;77.49
10518;BME280;5307;42.548;22.968;2023-01-31T13:15:45;93491.47;;;1.69;77.77
10518;BME280;5307;42.548;22.968;2023-01-31T13:18:13;93501.31;;;1.87;79.30
10518;BME280;5307;42.548;22.968;2023-01-31T13:20:44;93499.78;;;1.86;79.11
10518;BME280;5307;42.548;22.968;2023-01-31T13:23:17;93497.94;;;2.13;79.50
10518;BME280;5307;42.548;22.968;2023-01-31T13:25:48;93511.78;;;2.15;79.02
10518;BME280;5307;42.548;22.968;2023-01-31T13:31:23;93504.13;;;2.10;78.58
10518;BME280;5307;42.548;22.968;2023-01-31T13:33:53;93510.53;;;1.86;77.26
10518;BME280;5307;42.548;22.968;2023-01-31T13:36:24;93509.06;;;1.77;76.94
10518;BME280;5307;42.548;22.968;2023-01-31T13:38:54;93507.25;;;2.05;76.51
10518;BME280;5307;42.548;22.968;2023-01-31T13:41:25;93496.19;;;1.96;75.86
10518;BME280;5307;42.548;22.968;2023-01-31T13:43:54;93500.88;;;2.26;75.79
10518;BME280;5307;42.548;22.968;2023-01-31T13:46:28;93504.13;;;2.10;74.41
10518;BME280;5307;42.548;22.968;2023-01-31T13:49:00;93500.03;;;2.32;75.04
10518;BME280;5307;42.548;22.968;2023-01-31T13:51:34;93507.31;;;2.66;73.62